Fox, Montana
Current Conditions -  °F | °C
As of 6:35 AM on Saturday 25 Oct 2014 (Local Time) from KPOY Reporting Station
Clear Clear  
Wind Chill: 31°   Ceiling: Unl
Heat Index: 37°   Visibility: 10mi
Dew Point: 32°   Wind: 9mph
Humidity: 81%   Direction: 110°ESE
Pressure: 30.08"   Gusts: NA
Location:  45.3755°N, 109.216°W
Report Text: KPOY 251235Z AUTO 11008KT 10SM CLR 03/00 A3008 RMK AO2
Loading
Personal Weather Stations






























Interactive Weather Map
Tropical Storm Tracking
New forecast layout! Learn more

10-Day Weather Forecast

Advertisements
Track Severe Weather on mobile